createdAt,value
2019-04-01T00:01:16.578Z,9.68
2019-04-01T00:07:01.991Z,9.89
2019-04-01T00:09:51.691Z,9.76
2019-04-01T00:12:33.855Z,9.76
2019-04-01T00:15:23.585Z,9.76
2019-04-01T00:18:06.374Z,9.62
2019-04-01T00:20:56.105Z,9.55
2019-04-01T00:23:45.831Z,9.42
2019-04-01T00:26:28.373Z,9.13
2019-04-01T00:29:18.157Z,9.18
2019-04-01T00:32:08.046Z,9.13
2019-04-01T00:37:56.671Z,8.91
2019-04-01T00:40:46.398Z,8.75
2019-04-01T00:43:47.857Z,8.66
2019-04-01T00:46:37.613Z,8.71
2019-04-01T00:49:20.177Z,8.77
2019-04-01T00:52:09.912Z,8.82
2019-04-01T00:54:52.157Z,8.85
2019-04-01T00:57:41.901Z,8.79
2019-04-01T01:00:23.959Z,8.58
2019-04-01T01:03:13.712Z,8.63
2019-04-01T01:05:56.486Z,8.57
2019-04-01T01:08:46.210Z,8.50
2019-04-01T01:11:35.983Z,8.39
2019-04-01T01:14:18.501Z,8.39
2019-04-01T01:17:08.256Z,8.35
2019-04-01T01:19:57.978Z,8.17
2019-04-01T01:22:39.955Z,8.29
2019-04-01T01:25:29.747Z,8.40
2019-04-01T01:28:19.635Z,8.47
2019-04-01T01:31:09.522Z,8.41
2019-04-01T01:33:40.179Z,8.29
2019-04-01T01:36:29.880Z,8.28
2019-04-01T01:39:14.104Z,8.33
2019-04-01T01:42:03.879Z,8.54
2019-04-01T01:44:53.676Z,8.41
2019-04-01T01:47:43.380Z,8.41
2019-04-01T01:50:25.466Z,8.38
2019-04-01T01:53:15.306Z,8.35
2019-04-01T01:55:57.912Z,8.22
2019-04-01T01:58:47.644Z,8.13
2019-04-01T02:01:30.000Z,8.03
2019-04-01T02:04:19.890Z,8.02
2019-04-01T02:07:02.544Z,8.06
2019-04-01T02:09:52.252Z,8.11
2019-04-01T02:12:34.828Z,7.90
2019-04-01T02:15:24.568Z,7.66
2019-04-01T02:18:06.866Z,7.54
2019-04-01T02:20:56.633Z,7.33
2019-04-01T02:23:44.722Z,7.40
2019-04-01T02:26:34.470Z,7.43
2019-04-01T02:29:17.038Z,7.30
2019-04-01T02:32:06.777Z,7.32
2019-04-01T02:34:56.824Z,7.20
2019-04-01T02:37:46.623Z,7.13
2019-04-01T02:40:48.493Z,7.08
2019-04-01T02:43:30.939Z,7.03
2019-04-01T02:46:20.636Z,7.02
2019-04-01T02:49:03.115Z,7.17
2019-04-01T02:51:52.849Z,7.15
2019-04-01T02:54:34.859Z,7.43
2019-04-01T02:57:24.586Z,7.60
2019-04-01T03:00:07.106Z,7.53
2019-04-01T03:02:56.815Z,7.26
2019-04-01T03:05:38.893Z,7.32
2019-04-01T03:08:28.596Z,7.21
2019-04-01T03:11:11.456Z,7.05
2019-04-01T03:14:01.249Z,6.83
2019-04-01T03:16:43.796Z,6.80
2019-04-01T03:19:33.530Z,6.60
2019-04-01T03:22:16.376Z,6.70
2019-04-01T03:25:06.433Z,6.75
2019-04-01T03:27:48.483Z,6.74
2019-04-01T03:30:38.281Z,6.78
2019-04-01T03:33:20.800Z,6.81
2019-04-01T03:36:10.488Z,6.81
2019-04-01T03:42:12.065Z,6.74
2019-04-01T03:48:05.348Z,6.88
2019-04-01T03:50:47.385Z,6.91
2019-04-01T03:53:37.219Z,6.94
2019-04-01T03:59:23.240Z,6.99
2019-04-01T04:02:12.964Z,6.92
2019-04-01T04:04:55.635Z,6.75
2019-04-01T04:07:45.424Z,6.73
2019-04-01T04:10:27.734Z,6.74
2019-04-01T04:13:17.455Z,6.75
2019-04-01T04:16:07.158Z,6.69
2019-04-01T04:18:53.843Z,6.71
2019-04-01T04:21:36.182Z,6.64
2019-04-01T04:24:26.129Z,6.61
2019-04-01T04:27:15.901Z,6.62
2019-04-01T04:30:37.024Z,6.54
2019-04-01T04:33:19.730Z,6.61
2019-04-01T04:36:09.530Z,6.50
2019-04-01T04:38:59.530Z,6.48
2019-04-01T04:42:00.949Z,6.53
2019-04-01T04:44:44.247Z,6.48
2019-04-01T04:47:33.946Z,6.50
2019-04-01T04:50:16.047Z,6.73
2019-04-01T04:53:06.184Z,6.49
2019-04-01T04:55:48.893Z,6.58
2019-04-01T04:58:38.641Z,6.69
2019-04-01T05:01:28.523Z,6.50
2019-04-01T05:07:20.207Z,6.24
2019-04-01T05:13:20.515Z,6.33
2019-04-01T05:16:10.345Z,6.47
2019-04-01T05:18:52.693Z,6.40
2019-04-01T05:24:56.575Z,6.87
2019-04-01T05:27:58.862Z,6.75
2019-04-01T05:30:41.132Z,6.71
2019-04-01T05:33:30.855Z,6.68
2019-04-01T05:36:17.578Z,6.61
2019-04-01T05:39:07.913Z,6.89
2019-04-01T05:41:50.524Z,6.89
2019-04-01T05:44:40.248Z,6.94
2019-04-01T05:50:29.636Z,6.71
2019-04-01T05:53:11.938Z,6.75
2019-04-01T05:56:32.939Z,6.85
2019-04-01T05:59:15.286Z,7.02
2019-04-01T06:05:00.890Z,6.98
2019-04-01T06:07:50.610Z,6.97
2019-04-01T06:10:32.654Z,6.83
2019-04-01T06:13:22.555Z,6.66
2019-04-01T06:16:05.403Z,6.68
2019-04-01T06:18:55.086Z,6.64
2019-04-01T06:21:37.437Z,6.57
2019-04-01T06:24:27.246Z,6.90
2019-04-01T06:27:09.451Z,7.15
2019-04-01T06:29:59.450Z,7.19
2019-04-01T06:32:43.404Z,7.23
2019-04-01T06:38:46.501Z,8.66
2019-04-01T06:41:36.396Z,10.39
2019-04-01T06:44:26.180Z,11.44
2019-04-01T06:47:15.903Z,12.98
2019-04-01T06:50:06.026Z,13.96
2019-04-01T06:53:35.098Z,14.09
2019-04-01T06:56:24.808Z,13.59
2019-04-01T06:59:06.990Z,13.61
2019-04-01T07:01:56.948Z,13.10
2019-04-01T07:05:05.455Z,13.67
2019-04-01T07:07:47.816Z,14.14
2019-04-01T07:10:37.502Z,14.03
2019-04-01T07:13:19.946Z,13.82
2019-04-01T07:16:15.722Z,13.98
2019-04-01T07:18:53.476Z,12.89
2019-04-01T07:21:43.178Z,13.38
2019-04-01T07:24:25.552Z,13.59
2019-04-01T07:27:15.762Z,12.67
2019-04-01T07:29:58.776Z,12.04
2019-04-01T07:32:48.518Z,12.18
2019-04-01T07:35:38.280Z,13.10
2019-04-01T07:38:59.237Z,12.94
2019-04-01T07:41:41.938Z,12.95
2019-04-01T07:44:31.686Z,12.51
2019-04-01T07:47:21.458Z,12.40
2019-04-01T07:50:12.442Z,12.46
2019-04-01T07:52:55.556Z,12.76
2019-04-01T07:55:45.561Z,12.12
2019-04-01T07:58:35.375Z,11.88
2019-04-01T08:01:18.273Z,12.16
2019-04-01T08:04:08.074Z,11.92
2019-04-01T08:06:57.808Z,12.44
2019-04-01T08:09:40.603Z,12.24
2019-04-01T08:12:30.329Z,12.20
2019-04-01T08:15:12.590Z,11.75
2019-04-01T08:18:02.365Z,12.57
2019-04-01T08:20:52.117Z,12.31
2019-04-01T08:23:41.861Z,11.90
2019-04-01T08:26:31.615Z,11.55
2019-04-01T08:29:30.090Z,11.78
2019-04-01T08:32:05.739Z,11.48
2019-04-01T08:34:55.488Z,11.55
2019-04-01T08:37:40.243Z,11.23
2019-04-01T08:40:29.827Z,11.46
2019-04-01T08:43:19.787Z,11.01
2019-04-01T08:46:02.220Z,10.58
2019-04-01T08:48:51.989Z,10.63
2019-04-01T08:51:41.838Z,10.42
2019-04-01T08:54:31.653Z,10.57
2019-04-01T08:57:21.499Z,10.69
2019-04-01T09:00:42.571Z,10.78
2019-04-01T09:03:25.197Z,10.95
2019-04-01T09:06:15.022Z,10.69
2019-04-01T09:12:18.672Z,10.81
2019-04-01T09:15:39.633Z,10.82
2019-04-01T09:18:24.241Z,10.77
2019-04-01T09:21:06.501Z,11.05
2019-04-01T09:23:56.219Z,10.98
2019-04-01T09:26:38.566Z,10.99
2019-04-01T09:29:28.301Z,10.96
2019-04-01T09:32:10.565Z,11.19
2019-04-01T09:35:00.524Z,11.39
2019-04-01T09:37:44.066Z,11.32
2019-04-01T09:40:33.888Z,11.45
2019-04-01T09:43:17.364Z,12.16
2019-04-01T09:46:07.115Z,11.98
2019-04-01T09:48:49.389Z,12.43
2019-04-01T09:54:40.378Z,11.99
2019-04-01T10:00:31.382Z,11.92
2019-04-01T10:03:21.376Z,12.22
2019-04-01T10:06:03.688Z,12.44
2019-04-01T10:08:53.424Z,12.57
2019-04-01T10:11:35.384Z,12.56
2019-04-01T10:14:17.420Z,12.23
2019-04-01T10:16:59.670Z,12.61
2019-04-01T10:19:49.504Z,12.71
2019-04-01T10:22:39.338Z,12.61
2019-04-01T10:25:29.110Z,12.95
2019-04-01T10:28:18.900Z,12.78
2019-04-01T10:31:08.630Z,13.07
2019-04-01T10:33:51.330Z,13.22
2019-04-01T10:36:41.111Z,13.27
2019-04-01T10:39:31.048Z,13.31
2019-04-01T10:42:20.763Z,13.18
2019-04-01T10:45:03.160Z,13.75
2019-04-01T10:47:52.874Z,14.07
2019-04-01T10:50:35.703Z,13.69
2019-04-01T10:53:44.240Z,14.06
2019-04-01T10:56:35.830Z,13.68
2019-04-01T10:59:19.727Z,13.64
2019-04-01T11:02:02.280Z,13.59
2019-04-01T11:07:46.950Z,13.63
2019-04-01T11:10:36.646Z,13.76
2019-04-01T11:13:19.200Z,13.74
2019-04-01T11:16:08.998Z,13.81
2019-04-01T11:18:51.805Z,14.34
2019-04-01T11:21:41.561Z,14.17
2019-04-01T11:24:23.709Z,14.15
2019-04-01T11:27:13.406Z,14.07
2019-04-01T11:29:55.875Z,14.10
2019-04-01T11:32:45.669Z,14.13
2019-04-01T11:35:28.167Z,14.53
2019-04-01T11:38:17.981Z,14.70
2019-04-01T11:41:00.048Z,14.54
2019-04-01T11:43:30.732Z,14.63
2019-04-01T11:46:20.504Z,14.46
2019-04-01T11:49:03.458Z,14.50
2019-04-01T11:51:53.319Z,14.60
2019-04-01T11:54:43.076Z,14.56
2019-04-01T11:57:32.877Z,14.71
2019-04-01T12:00:26.133Z,14.75
2019-04-01T12:03:08.225Z,14.74
2019-04-01T12:05:58.197Z,14.77
2019-04-01T12:08:47.942Z,14.81
2019-04-01T12:11:37.660Z,14.73
2019-04-01T12:14:27.419Z,14.96
2019-04-01T12:17:10.121Z,15.12
2019-04-01T12:19:59.900Z,15.03
2019-04-01T12:22:45.591Z,15.26
2019-04-01T12:25:34.132Z,15.14
2019-04-01T12:28:16.217Z,15.12
2019-04-01T12:31:05.959Z,15.02
2019-04-01T12:33:48.509Z,15.04
2019-04-01T12:36:38.191Z,15.41
2019-04-01T12:39:20.961Z,15.59
2019-04-01T12:42:10.800Z,15.25
2019-04-01T12:44:52.967Z,15.30
2019-04-01T12:47:43.406Z,15.62
2019-04-01T12:50:26.319Z,15.46
2019-04-01T12:53:16.185Z,15.64
2019-04-01T12:55:59.979Z,15.44
2019-04-01T12:58:49.726Z,15.77
2019-04-01T13:01:33.807Z,16.13
2019-04-01T13:04:23.493Z,16.10
2019-04-01T13:07:05.876Z,16.06
2019-04-01T13:09:55.593Z,15.77
2019-04-01T13:12:38.379Z,15.86
2019-04-01T13:15:28.073Z,15.61
2019-04-01T13:18:10.006Z,15.81
2019-04-01T13:20:59.731Z,16.02
2019-04-01T13:23:42.049Z,16.24
2019-04-01T13:26:31.862Z,16.35
2019-04-01T13:29:21.549Z,16.53
2019-04-01T13:32:04.332Z,16.18
2019-04-01T13:34:46.367Z,16.18
2019-04-01T13:37:36.220Z,16.39
2019-04-01T13:40:26.026Z,16.06
2019-04-01T13:43:17.077Z,16.22
2019-04-01T13:45:59.971Z,16.42
2019-04-01T13:48:57.700Z,16.28
2019-04-01T13:51:43.602Z,16.33
2019-04-01T13:54:25.616Z,16.21
2019-04-01T13:57:15.473Z,16.40
2019-04-01T14:03:11.159Z,16.21
2019-04-01T14:05:54.338Z,16.39
2019-04-01T14:08:44.216Z,16.30
2019-04-01T14:11:34.061Z,16.61
2019-04-01T14:14:23.801Z,16.62
2019-04-01T14:17:06.047Z,16.55
2019-04-01T14:20:07.685Z,16.43
2019-04-01T14:22:53.610Z,17.07
2019-04-01T14:25:43.199Z,16.74
2019-04-01T14:28:27.848Z,16.76
2019-04-01T14:30:58.542Z,16.72
2019-04-01T14:33:48.373Z,16.75
2019-04-01T14:36:30.513Z,16.90
2019-04-01T14:39:15.012Z,16.79
2019-04-01T14:42:04.779Z,16.66
2019-04-01T14:44:52.690Z,16.86
2019-04-01T14:47:56.684Z,16.89
2019-04-01T14:50:26.807Z,16.80
2019-04-01T14:53:16.630Z,16.90
2019-04-01T14:56:25.486Z,16.92
2019-04-01T14:59:15.264Z,17.10
2019-04-01T15:01:45.879Z,17.09
2019-04-01T15:04:28.424Z,17.04
2019-04-01T15:07:18.492Z,17.17
2019-04-01T15:10:02.492Z,16.70
2019-04-01T15:13:04.499Z,16.66
2019-04-01T15:15:37.618Z,16.75
2019-04-01T15:18:27.355Z,16.87
2019-04-01T15:21:11.918Z,16.96
2019-04-01T15:24:01.744Z,16.90
2019-04-01T15:26:43.874Z,16.86
2019-04-01T15:29:33.621Z,17.03
2019-04-01T15:32:17.192Z,16.98
2019-04-01T15:38:22.092Z,17.04
2019-04-01T15:41:11.908Z,16.83
2019-04-01T15:44:01.709Z,16.84
2019-04-01T15:46:51.545Z,16.91
2019-04-01T15:49:41.297Z,16.98
2019-04-01T15:52:31.013Z,16.81
2019-04-01T15:55:20.805Z,16.93
2019-04-01T15:58:10.559Z,17.03
2019-04-01T16:00:53.092Z,17.12
2019-04-01T16:03:42.834Z,17.08
2019-04-01T16:06:32.783Z,16.93
2019-04-01T16:09:23.261Z,16.70
2019-04-01T16:12:06.531Z,16.83
2019-04-01T16:14:56.832Z,16.93
2019-04-01T16:17:41.022Z,16.92
2019-04-01T16:20:23.468Z,16.93
2019-04-01T16:23:05.652Z,16.71
2019-04-01T16:25:55.439Z,16.80
2019-04-01T16:28:45.257Z,16.86
2019-04-01T16:31:35.041Z,16.85
2019-04-01T16:34:24.819Z,16.78
2019-04-01T16:37:14.609Z,16.78
2019-04-01T16:43:24.389Z,16.68
2019-04-01T16:46:14.131Z,16.71
2019-04-01T16:48:56.147Z,16.60
2019-04-01T16:51:46.127Z,16.59
2019-04-01T16:54:28.361Z,16.48
2019-04-01T16:57:18.083Z,16.40
2019-04-01T17:03:43.040Z,16.32
2019-04-01T17:06:32.736Z,16.23
2019-04-01T17:09:15.008Z,16.23
2019-04-01T17:15:07.331Z,16.22
2019-04-01T17:17:57.079Z,16.12
2019-04-01T17:20:43.111Z,16.02
2019-04-01T17:23:32.963Z,15.91
2019-04-01T17:26:16.479Z,15.91
2019-04-01T17:29:06.267Z,15.91
2019-04-01T17:31:48.428Z,15.71
2019-04-01T17:34:38.322Z,15.58
2019-04-01T17:37:21.186Z,15.60
2019-04-01T17:43:27.418Z,15.62
2019-04-01T17:46:09.792Z,15.42
2019-04-01T17:48:59.608Z,15.42
2019-04-01T17:51:49.330Z,15.36
2019-04-01T17:54:32.185Z,15.25
2019-04-01T17:57:21.899Z,15.23
2019-04-01T18:03:54.930Z,15.10
2019-04-01T18:06:38.644Z,15.11
2019-04-01T18:09:28.462Z,15.08
2019-04-01T18:12:18.405Z,14.98
2019-04-01T18:15:08.348Z,14.88
2019-04-01T18:17:58.144Z,14.90
2019-04-01T18:20:47.995Z,14.88
2019-04-01T18:29:37.953Z,14.65
2019-04-01T18:35:31.446Z,14.60
2019-04-01T18:38:21.213Z,14.56
2019-04-01T18:41:05.223Z,14.36
2019-04-01T18:43:55.356Z,14.47
2019-04-01T18:46:39.436Z,14.24
2019-04-01T18:52:35.308Z,14.05
2019-04-01T18:55:17.721Z,13.68
2019-04-01T19:01:04.205Z,13.44
2019-04-01T19:03:52.555Z,13.29
2019-04-01T19:06:36.337Z,13.18
2019-04-01T19:09:18.581Z,13.36
2019-04-01T19:12:08.731Z,13.45
2019-04-01T19:15:02.024Z,13.24
2019-04-01T19:17:43.098Z,13.16
2019-04-01T19:20:33.141Z,13.05
2019-04-01T19:26:16.345Z,12.99
2019-04-01T19:29:06.119Z,12.89
2019-04-01T19:32:09.421Z,12.95
2019-04-01T19:34:51.591Z,12.81
2019-04-01T19:37:41.586Z,12.67
2019-04-01T19:40:24.067Z,12.61
2019-04-01T19:43:13.785Z,12.67
2019-04-01T19:45:56.228Z,12.59
2019-04-01T19:48:46.159Z,12.44
2019-04-01T19:51:28.981Z,12.45
2019-04-01T19:57:21.159Z,12.40
2019-04-01T20:00:10.983Z,12.30
2019-04-01T20:02:53.734Z,12.27
2019-04-01T20:05:43.657Z,12.45
2019-04-01T20:08:25.814Z,12.40
2019-04-01T20:11:15.788Z,12.49
2019-04-01T20:13:58.825Z,12.57
2019-04-01T20:16:48.914Z,12.51
2019-04-01T20:19:31.261Z,12.38
2019-04-01T20:22:21.239Z,12.38
2019-04-01T20:25:03.563Z,12.22
2019-04-01T20:27:53.300Z,12.24
2019-04-01T20:30:35.243Z,12.15
2019-04-01T20:33:20.681Z,12.16
2019-04-01T20:36:04.904Z,12.20
2019-04-01T20:38:51.067Z,11.98
2019-04-01T20:41:33.682Z,12.00
2019-04-01T20:44:24.071Z,12.02
2019-04-01T20:47:13.987Z,12.04
2019-04-01T20:50:04.360Z,11.96
2019-04-01T20:53:26.533Z,12.16
2019-04-01T20:56:08.953Z,12.36
2019-04-01T20:58:59.151Z,12.20
2019-04-01T21:01:49.549Z,12.11
2019-04-01T21:04:39.543Z,12.13
2019-04-01T21:07:29.571Z,11.94
2019-04-01T21:10:19.426Z,11.95
2019-04-01T21:13:09.689Z,11.99
2019-04-01T21:15:59.652Z,11.81
2019-04-01T21:18:49.604Z,11.73
2019-04-01T21:21:32.589Z,11.73
2019-04-01T21:24:22.684Z,11.58
2019-04-01T21:27:12.514Z,11.24
2019-04-01T21:30:02.297Z,11.13
2019-04-01T21:32:52.035Z,11.12
2019-04-01T21:35:34.937Z,11.10
2019-04-01T21:38:24.803Z,11.04
2019-04-01T21:41:14.754Z,10.99
2019-04-01T21:44:04.549Z,10.92
2019-04-01T21:46:54.429Z,10.93
2019-04-01T21:49:44.226Z,10.90
2019-04-01T21:52:34.296Z,10.87
2019-04-01T21:55:18.331Z,10.85
2019-04-01T21:58:08.078Z,10.96
2019-04-01T22:00:52.310Z,11.01
2019-04-01T22:03:42.565Z,10.93
2019-04-01T22:06:25.970Z,10.96
2019-04-01T22:09:15.706Z,10.90
2019-04-01T22:11:46.489Z,10.86
2019-04-01T22:14:36.306Z,10.97
2019-04-01T22:17:18.852Z,10.90
2019-04-01T22:20:10.221Z,10.74
2019-04-01T22:22:53.454Z,10.66
2019-04-01T22:25:43.290Z,10.47
2019-04-01T22:28:25.904Z,10.76
2019-04-01T22:31:15.966Z,10.68
2019-04-01T22:34:05.738Z,10.65
2019-04-01T22:36:55.440Z,10.44
2019-04-01T22:39:45.512Z,10.44
2019-04-01T22:42:28.808Z,10.42
2019-04-01T22:45:19.541Z,10.43
2019-04-01T22:48:03.059Z,10.38
2019-04-01T22:50:52.828Z,10.48
2019-04-01T22:53:35.600Z,10.48
2019-04-01T22:56:26.243Z,10.41
2019-04-01T22:59:10.026Z,10.24
2019-04-01T23:01:59.724Z,10.15
2019-04-01T23:04:41.759Z,10.03
2019-04-01T23:07:33.017Z,10.08
2019-04-01T23:10:17.278Z,10.09
2019-04-01T23:16:08.462Z,10.05
2019-04-01T23:18:58.159Z,9.79
2019-04-01T23:21:40.690Z,9.76
2019-04-01T23:24:30.420Z,9.70
2019-04-01T23:27:12.666Z,9.64
2019-04-01T23:33:05.127Z,9.83
2019-04-01T23:35:54.910Z,9.85
2019-04-01T23:38:37.350Z,9.78
2019-04-01T23:41:27.102Z,9.70
2019-04-01T23:44:09.356Z,9.62
2019-04-01T23:46:59.086Z,9.62
2019-04-01T23:49:41.565Z,9.46
2019-04-01T23:55:33.469Z,9.58
2019-04-01T23:58:23.211Z,9.45
